»·PEaware :: N427LJ KSNA-KSMO

N427LJ :: KSNA-KSMO

FLIGHT INFORMATION

Flight Status: Arrived
Operator: Privately registered:
United States
More flights under this callsign
Pilot: Anonymous 27948 (27948)
Aircraft: CESSNA 172 SKYHAWK
(C172)
More flights by this aircraft type
Origin: KSNA John Wayne-Orange Co
United States
Destination: KSMO Santa Monica Mun
United States
More flights between these airports :: More routes between these airports
Route: +SLI V8 POXKU V363 BAYJY V186 DARTS
File this flight plan on PilotEdge
Remarks:
Altitude:
(Current/Filed)
6,000ft
Speed:
(Current/Filed)
120kts
Departed: 04-Jul-20 11:33 AM
Arrived: 04-Jul-20 12:10 PM
Distance/Time
Traveled:
35nm/0:37
Distance/Time
To Go:
Arrived

Flight Plot

Page will automatically refresh every two minutes.


Map Options




Map Legend


Flown Route
Filed Route
Departure Airport
Arrival Airport
Navaid (VOR, NDB)
Fix

Horizontal Profiles

Position Reports

Time Latitude Longitude Heading Altitude Ground
Speed
04-Jul-20 11:09 33.671189 -117.868027 211 60ft 0kts
04-Jul-20 11:10 33.671189 -117.868027 211 60ft 0kts
04-Jul-20 11:11 33.671189 -117.868027 211 60ft 0kts
04-Jul-20 11:12 33.671189 -117.868027 211 60ft 0kts
04-Jul-20 11:13 33.671189 -117.868027 211 60ft 0kts
04-Jul-20 11:14 33.671189 -117.868027 211 60ft 0kts
04-Jul-20 11:15 33.671189 -117.868027 211 60ft 0kts
04-Jul-20 11:16 33.671189 -117.868027 211 60ft 0kts
04-Jul-20 11:17 33.671189 -117.868027 211 60ft 0kts
04-Jul-20 11:18 33.671189 -117.868027 211 60ft 0kts
04-Jul-20 11:19 33.671189 -117.868027 211 60ft 0kts
04-Jul-20 11:20 33.671189 -117.868027 211 60ft 0kts
04-Jul-20 11:21 33.671189 -117.868027 211 60ft 0kts
04-Jul-20 11:22 33.671189 -117.868027 211 60ft 0kts
04-Jul-20 11:23 33.671189 -117.868027 211 60ft 0kts
04-Jul-20 11:24 33.671189 -117.868027 211 60ft 0kts
04-Jul-20 11:25 33.671189 -117.868027 211 60ft 0kts
04-Jul-20 11:26 33.671508 -117.868486 10 60ft 6kts
04-Jul-20 11:27 33.673530 -117.867084 345 60ft 5kts
04-Jul-20 11:28 33.675883 -117.865934 30 60ft 17kts
04-Jul-20 11:29 33.678763 -117.864144 27 60ft 11kts
04-Jul-20 11:30 33.679914 -117.863558 304 60ft 0kts
04-Jul-20 11:31 33.679948 -117.863602 310 60ft 4kts
04-Jul-20 11:32 33.669235 -117.873409 238 556ft 78kts
04-Jul-20 11:33 33.656623 -117.893459 231 1612ft 78kts
04-Jul-20 11:34 33.643088 -117.914198 231 2610ft 80kts
04-Jul-20 11:35 33.634693 -117.936890 304 3540ft 81kts
04-Jul-20 11:36 33.651890 -117.928960 50 4410ft 82kts
04-Jul-20 11:37 33.668975 -117.909733 37 5171ft 90kts
04-Jul-20 11:38 33.689997 -117.892476 31 5889ft 94kts
04-Jul-20 11:39 33.716602 -117.873472 29 5927ft 117kts
04-Jul-20 11:40 33.745281 -117.854114 28 5926ft 118kts
04-Jul-20 11:41 33.774044 -117.835034 28 5926ft 118kts
04-Jul-20 11:42 33.802880 -117.815980 28 5926ft 118kts
04-Jul-20 11:43 33.831768 -117.796898 28 5926ft 118kts
04-Jul-20 11:44 33.862250 -117.783949 1 5926ft 118kts
04-Jul-20 11:45 33.895145 -117.783584 359 5926ft 118kts
04-Jul-20 11:46 33.928042 -117.784012 358 5926ft 118kts
04-Jul-20 11:47 33.960983 -117.784643 358 5926ft 118kts
04-Jul-20 11:48 33.993830 -117.785322 358 5926ft 118kts
04-Jul-20 11:49 34.014022 -117.813884 295 5926ft 118kts
04-Jul-20 11:50 34.026916 -117.850486 291 5926ft 118kts
04-Jul-20 11:51 34.038819 -117.887499 290 5926ft 118kts
04-Jul-20 11:52 34.050365 -117.924729 290 5926ft 118kts
04-Jul-20 11:53 34.061845 -117.961991 290 5926ft 118kts
04-Jul-20 11:54 34.073339 -117.999358 290 5926ft 118kts
04-Jul-20 11:55 34.084781 -118.036587 290 5926ft 118kts
04-Jul-20 11:56 34.096851 -118.075820 290 5332ft 129kts
04-Jul-20 11:57 34.108717 -118.114522 290 4824ft 108kts
04-Jul-20 11:58 34.119977 -118.151302 290 4046ft 129kts
04-Jul-20 11:59 34.130942 -118.187092 290 3928ft 110kts
04-Jul-20 12:00 34.142032 -118.223188 290 3927ft 116kts
04-Jul-20 12:01 34.153379 -118.260093 290 3926ft 117kts
04-Jul-20 12:02 34.149057 -118.294874 222 3655ft 124kts
04-Jul-20 12:03 34.122776 -118.322982 221 2966ft 126kts
04-Jul-20 12:04 34.099227 -118.348083 221 2921ft 105kts
04-Jul-20 12:05 34.076637 -118.372174 221 2191ft 98kts
04-Jul-20 12:06 34.057667 -118.394193 230 1447ft 95kts
04-Jul-20 12:07 34.042895 -118.418866 222 1023ft 80kts
04-Jul-20 12:08 34.026808 -118.438486 224 382ft 77kts
04-Jul-20 12:09 34.014751 -118.452567 215 135ft 14kts
04-Jul-20 12:10 34.014225 -118.452321 124 133ft 2kts

Navigation Log

Ident Type
Flight plan parsing failed, navigation log unavailable